createdAt,value
2022-11-06T00:00:48.359Z,20.52
2022-11-06T00:03:15.779Z,24.95
2022-11-06T00:06:01.969Z,26.23
2022-11-06T00:08:30.508Z,23.13
2022-11-06T00:10:58.124Z,24.95
2022-11-06T00:13:25.275Z,25.83
2022-11-06T00:15:52.581Z,26.50
2022-11-06T00:18:20.134Z,22.75
2022-11-06T00:20:47.284Z,25.80
2022-11-06T00:23:14.594Z,26.63
2022-11-06T00:25:41.820Z,23.10
2022-11-06T00:28:09.051Z,28.80
2022-11-06T00:30:36.404Z,25.00
2022-11-06T00:33:03.846Z,26.40
2022-11-06T00:35:30.980Z,25.30
2022-11-06T00:37:58.251Z,25.23
2022-11-06T00:40:25.430Z,24.17
2022-11-06T00:42:54.384Z,26.00
2022-11-06T00:45:21.569Z,24.40
2022-11-06T00:47:48.717Z,23.63
2022-11-06T00:50:16.016Z,25.50
2022-11-06T00:52:43.329Z,24.90
2022-11-06T00:55:10.563Z,23.25
2022-11-06T00:57:37.756Z,24.08
2022-11-06T01:00:05.447Z,25.65
2022-11-06T01:02:32.766Z,24.50
2022-11-06T01:05:00.009Z,24.08
2022-11-06T01:07:27.610Z,24.00
2022-11-06T01:09:54.745Z,21.33
2022-11-06T01:12:21.861Z,24.60
2022-11-06T01:14:49.172Z,22.77
2022-11-06T01:17:16.313Z,23.77
2022-11-06T01:19:43.501Z,23.48
2022-11-06T01:22:10.952Z,22.92
2022-11-06T01:24:38.270Z,24.50
2022-11-06T01:27:25.352Z,23.27
2022-11-06T01:29:52.676Z,23.60
2022-11-06T01:32:19.830Z,22.77
2022-11-06T01:34:47.045Z,24.85
2022-11-06T01:37:15.109Z,25.02
2022-11-06T01:39:42.377Z,24.80
2022-11-06T01:42:11.908Z,23.98
2022-11-06T01:44:45.503Z,22.60
2022-11-06T01:47:19.898Z,23.98
2022-11-06T01:49:47.284Z,22.92
2022-11-06T01:52:15.478Z,23.58
2022-11-06T01:54:43.656Z,24.83
2022-11-06T01:57:11.382Z,25.10
2022-11-06T01:59:40.669Z,23.77
2022-11-06T02:02:08.281Z,24.15
2022-11-06T02:04:38.063Z,23.67
2022-11-06T02:07:05.884Z,19.95
2022-11-06T02:09:33.625Z,22.73
2022-11-06T02:12:00.788Z,21.85
2022-11-06T02:14:37.435Z,23.23
2022-11-06T02:17:16.491Z,23.23
2022-11-06T02:19:46.859Z,23.33
2022-11-06T02:22:29.323Z,22.37
2022-11-06T02:25:30.186Z,21.63
2022-11-06T02:28:05.159Z,22.60
2022-11-06T02:30:35.543Z,23.15
2022-11-06T02:33:05.961Z,22.30
2022-11-06T02:35:35.622Z,22.73
2022-11-06T02:38:10.933Z,23.10
2022-11-06T02:40:40.192Z,22.27
2022-11-06T02:43:08.616Z,21.35
2022-11-06T02:46:08.137Z,22.63
2022-11-06T02:48:38.059Z,22.27
2022-11-06T02:51:06.287Z,22.15
2022-11-06T02:53:33.814Z,23.17
2022-11-06T02:56:05.422Z,22.42
2022-11-06T02:58:38.981Z,21.83
2022-11-06T03:01:16.556Z,22.23
2022-11-06T03:03:48.318Z,22.30
2022-11-06T03:06:18.438Z,22.77
2022-11-06T03:08:50.379Z,22.38
2022-11-06T03:11:35.873Z,23.48
2022-11-06T03:14:03.137Z,23.75
2022-11-06T03:16:30.362Z,22.80
2022-11-06T03:19:11.010Z,21.92
2022-11-06T03:22:16.915Z,22.27
2022-11-06T03:24:52.598Z,22.20
2022-11-06T03:27:45.976Z,20.42
2022-11-06T03:30:16.697Z,21.95
2022-11-06T03:32:50.363Z,23.52
2022-11-06T03:35:26.768Z,22.05
2022-11-06T03:37:57.122Z,20.75
2022-11-06T03:40:26.208Z,22.57
2022-11-06T03:42:55.685Z,20.80
2022-11-06T03:45:25.576Z,21.63
2022-11-06T03:48:11.839Z,23.45
2022-11-06T03:50:43.916Z,23.55
2022-11-06T03:53:16.620Z,23.65
2022-11-06T03:55:49.968Z,23.30
2022-11-06T03:58:22.883Z,23.17
2022-11-06T04:00:51.340Z,24.42
2022-11-06T04:03:29.703Z,24.95
2022-11-06T04:06:03.532Z,23.00
2022-11-06T04:08:51.694Z,25.13
2022-11-06T04:11:40.362Z,23.95
2022-11-06T04:14:08.448Z,21.30
2022-11-06T04:16:38.168Z,24.25
2022-11-06T04:19:16.180Z,23.48
2022-11-06T04:21:43.262Z,22.45
2022-11-06T04:24:48.023Z,22.10
2022-11-06T04:27:15.105Z,23.17
2022-11-06T04:30:00.713Z,24.67
2022-11-06T04:32:36.738Z,22.85
2022-11-06T04:35:06.674Z,23.92
2022-11-06T04:37:49.074Z,22.20
2022-11-06T04:40:25.956Z,23.17
2022-11-06T04:43:11.965Z,24.70
2022-11-06T04:45:41.485Z,23.17
2022-11-06T04:48:09.488Z,24.67
2022-11-06T04:50:40.440Z,26.58
2022-11-06T04:53:09.538Z,25.77
2022-11-06T04:55:47.546Z,25.27
2022-11-06T04:58:15.531Z,24.80
2022-11-06T05:00:45.319Z,26.48
2022-11-06T05:03:12.522Z,26.67
2022-11-06T05:05:39.813Z,26.67
2022-11-06T05:08:07.077Z,27.40
2022-11-06T05:10:34.221Z,26.88
2022-11-06T05:13:01.399Z,26.70
2022-11-06T05:15:28.723Z,28.00
2022-11-06T05:17:55.839Z,27.23
2022-11-06T05:20:23.198Z,25.40
2022-11-06T05:23:00.583Z,29.23
2022-11-06T05:25:31.978Z,27.52
2022-11-06T05:30:26.546Z,27.50
2022-11-06T05:32:54.138Z,28.15
2022-11-06T05:35:21.780Z,29.38
2022-11-06T05:37:49.078Z,28.45
2022-11-06T05:40:16.594Z,28.90
2022-11-06T05:42:44.654Z,28.27
2022-11-06T05:45:12.523Z,27.25
2022-11-06T05:47:42.688Z,27.58
2022-11-06T05:50:10.266Z,30.48
2022-11-06T05:52:38.019Z,28.48
2022-11-06T05:55:10.173Z,31.55
2022-11-06T05:57:40.492Z,30.42
2022-11-06T06:00:08.452Z,29.98
2022-11-06T06:02:36.648Z,28.92
2022-11-06T06:05:04.913Z,26.70
2022-11-06T06:07:32.797Z,26.70
2022-11-06T06:10:00.268Z,29.38
2022-11-06T06:12:27.506Z,30.45
2022-11-06T06:14:54.953Z,28.80
2022-11-06T06:17:22.232Z,31.98
2022-11-06T06:19:49.406Z,30.98
2022-11-06T06:22:16.736Z,29.50
2022-11-06T06:24:44.010Z,28.73
2022-11-06T06:27:11.329Z,32.63
2022-11-06T06:29:38.807Z,31.00
2022-11-06T06:32:06.127Z,31.77
2022-11-06T06:34:33.264Z,30.58
2022-11-06T06:37:00.533Z,29.40
2022-11-06T06:39:27.684Z,28.08
2022-11-06T06:41:54.824Z,30.75
2022-11-06T06:44:22.114Z,30.00
2022-11-06T06:46:49.280Z,29.63
2022-11-06T06:49:16.408Z,29.08
2022-11-06T06:51:43.626Z,28.08
2022-11-06T06:54:10.860Z,29.30
2022-11-06T06:56:38.050Z,29.23
2022-11-06T06:59:05.238Z,26.40
2022-11-06T07:01:32.516Z,28.10
2022-11-06T07:04:03.879Z,28.58
2022-11-06T07:06:31.836Z,27.92
2022-11-06T07:08:58.996Z,28.92
2022-11-06T07:11:26.184Z,28.70
2022-11-06T07:13:53.390Z,28.52
2022-11-06T07:16:21.789Z,26.33
2022-11-06T07:18:48.919Z,26.95
2022-11-06T07:21:16.170Z,28.23
2022-11-06T07:23:43.319Z,28.17
2022-11-06T07:26:10.449Z,30.15
2022-11-06T07:28:37.821Z,27.75
2022-11-06T07:31:06.418Z,28.17
2022-11-06T07:33:33.781Z,29.20
2022-11-06T07:36:11.169Z,24.30
2022-11-06T07:38:39.217Z,28.25
2022-11-06T07:41:07.761Z,27.33
2022-11-06T07:43:35.432Z,28.10
2022-11-06T07:46:03.741Z,25.75
2022-11-06T07:48:31.300Z,26.48
2022-11-06T07:50:59.137Z,28.17
2022-11-06T07:53:26.297Z,27.17
2022-11-06T07:55:54.278Z,27.90
2022-11-06T07:58:21.674Z,27.65
2022-11-06T08:00:52.429Z,26.73
2022-11-06T08:03:20.015Z,26.02
2022-11-06T08:05:47.302Z,26.83
2022-11-06T08:08:15.049Z,25.92
2022-11-06T08:10:43.756Z,25.20
2022-11-06T08:13:11.857Z,26.60
2022-11-06T08:15:39.285Z,26.38
2022-11-06T08:18:08.053Z,27.58
2022-11-06T08:20:35.742Z,25.73
2022-11-06T08:23:03.556Z,27.25
2022-11-06T08:25:31.554Z,26.23
2022-11-06T08:27:59.734Z,26.58
2022-11-06T08:30:27.932Z,25.92
2022-11-06T08:32:55.735Z,25.80
2022-11-06T08:35:23.176Z,24.63
2022-11-06T08:37:50.307Z,25.77
2022-11-06T08:40:17.633Z,26.30
2022-11-06T08:42:44.800Z,24.88
2022-11-06T08:45:11.952Z,24.73
2022-11-06T08:47:39.062Z,26.85
2022-11-06T08:50:06.539Z,25.23
2022-11-06T08:52:34.326Z,24.50
2022-11-06T08:55:01.792Z,24.88
2022-11-06T08:57:28.996Z,24.08
2022-11-06T08:59:56.106Z,24.70
2022-11-06T09:02:23.333Z,25.23
2022-11-06T09:04:50.538Z,23.77
2022-11-06T09:07:18.093Z,24.60
2022-11-06T09:09:45.204Z,25.00
2022-11-06T09:12:12.449Z,25.17
2022-11-06T09:14:40.214Z,24.50
2022-11-06T09:17:07.522Z,24.95
2022-11-06T09:19:34.682Z,26.00
2022-11-06T09:22:01.807Z,24.05
2022-11-06T09:24:57.176Z,26.00
2022-11-06T09:27:16.895Z,26.50
2022-11-06T09:29:44.591Z,27.77
2022-11-06T09:32:11.913Z,25.48
2022-11-06T09:34:39.189Z,26.48
2022-11-06T09:37:06.317Z,23.83
2022-11-06T09:39:33.472Z,24.35
2022-11-06T09:42:02.670Z,24.85
2022-11-06T09:44:29.824Z,24.77
2022-11-06T09:46:58.656Z,26.77
2022-11-06T09:49:25.900Z,26.13
2022-11-06T09:51:57.451Z,24.08
2022-11-06T09:54:28.933Z,25.88
2022-11-06T09:56:58.753Z,24.92
2022-11-06T09:59:26.400Z,28.13
2022-11-06T10:01:55.914Z,25.23
2022-11-06T10:04:41.660Z,26.23
2022-11-06T10:07:35.259Z,23.83
2022-11-06T10:10:03.223Z,23.88
2022-11-06T10:12:33.493Z,24.40
2022-11-06T10:15:19.643Z,24.60
2022-11-06T10:17:49.607Z,24.15
2022-11-06T10:20:25.437Z,24.30
2022-11-06T10:23:13.532Z,24.02
2022-11-06T10:25:43.460Z,24.48
2022-11-06T10:28:20.602Z,24.67
2022-11-06T10:30:56.489Z,23.92
2022-11-06T10:33:39.621Z,24.35
2022-11-06T10:36:10.954Z,24.75
2022-11-06T10:41:05.439Z,21.70
2022-11-06T10:43:45.028Z,22.33
2022-11-06T10:46:32.381Z,24.15
2022-11-06T10:49:01.462Z,24.83
2022-11-06T10:51:46.975Z,24.38
2022-11-06T10:54:29.451Z,26.85
2022-11-06T10:57:03.131Z,26.85
2022-11-06T10:59:30.580Z,26.35
2022-11-06T11:01:57.811Z,23.45
2022-11-06T11:04:25.051Z,22.92
2022-11-06T11:06:52.232Z,23.42
2022-11-06T11:09:29.304Z,21.90
2022-11-06T11:11:56.611Z,22.60
2022-11-06T11:14:25.349Z,20.70
2022-11-06T11:16:52.883Z,20.20
2022-11-06T11:19:27.763Z,19.75
2022-11-06T11:21:56.284Z,22.98
2022-11-06T11:24:23.591Z,23.83
2022-11-06T11:26:53.438Z,24.85
2022-11-06T11:29:27.998Z,24.58
2022-11-06T11:31:57.626Z,24.25
2022-11-06T11:34:26.637Z,26.23
2022-11-06T11:37:00.075Z,25.70
2022-11-06T11:39:47.448Z,25.15
2022-11-06T11:42:17.859Z,22.88
2022-11-06T11:44:45.064Z,22.50
2022-11-06T11:47:23.032Z,24.23
2022-11-06T11:49:50.262Z,24.67
2022-11-06T11:52:19.500Z,24.85
2022-11-06T11:54:48.901Z,25.45
2022-11-06T11:57:20.487Z,25.15
2022-11-06T11:59:55.201Z,25.45
2022-11-06T12:02:29.527Z,24.10
2022-11-06T12:05:01.510Z,23.27
2022-11-06T12:07:36.597Z,23.23
2022-11-06T12:10:15.512Z,25.15
2022-11-06T12:12:48.990Z,25.60
2022-11-06T12:15:19.505Z,26.83
2022-11-06T12:17:55.325Z,20.98
2022-11-06T12:20:25.569Z,26.10
2022-11-06T12:22:53.248Z,24.35
2022-11-06T12:25:22.611Z,26.10
2022-11-06T12:27:54.890Z,26.42
2022-11-06T12:30:22.449Z,27.00
2022-11-06T12:32:55.804Z,27.35
2022-11-06T12:35:22.924Z,28.08
2022-11-06T12:37:59.139Z,27.52
2022-11-06T12:40:30.050Z,27.77
2022-11-06T12:42:57.370Z,28.92
2022-11-06T12:45:27.738Z,26.70
2022-11-06T12:47:59.988Z,20.53
2022-11-06T12:50:36.689Z,24.08
2022-11-06T12:53:06.838Z,26.40
2022-11-06T12:55:41.583Z,27.17
2022-11-06T12:58:34.767Z,25.70
2022-11-06T13:01:08.244Z,27.50
2022-11-06T13:03:44.945Z,25.35
2022-11-06T13:06:18.074Z,24.90
2022-11-06T13:08:51.675Z,27.73
2022-11-06T13:11:18.947Z,27.83
2022-11-06T13:13:50.292Z,27.73
2022-11-06T13:18:53.254Z,26.85
2022-11-06T13:21:23.540Z,27.70
2022-11-06T13:23:50.811Z,28.02
2022-11-06T13:26:20.990Z,29.98
2022-11-06T13:28:56.194Z,29.48
2022-11-06T13:31:26.251Z,30.40
2022-11-06T13:33:56.766Z,28.67
2022-11-06T13:36:24.498Z,28.25
2022-11-06T13:38:55.161Z,29.00
2022-11-06T13:41:24.374Z,29.70
2022-11-06T13:44:01.424Z,27.13
2022-11-06T13:46:42.186Z,27.67
2022-11-06T13:49:23.535Z,24.90
2022-11-06T13:51:51.515Z,24.00
2022-11-06T13:54:18.738Z,24.48
2022-11-06T13:56:54.826Z,23.10
2022-11-06T13:59:23.933Z,23.92
2022-11-06T14:01:55.460Z,22.13
2022-11-06T14:06:53.095Z,22.33
2022-11-06T14:09:21.801Z,22.73
2022-11-06T14:11:59.307Z,22.80
2022-11-06T14:14:28.295Z,23.63
2022-11-06T14:17:14.218Z,22.17
2022-11-06T14:19:47.653Z,23.42
2022-11-06T14:22:32.385Z,23.15
2022-11-06T14:25:02.097Z,21.30
2022-11-06T14:27:29.665Z,22.10
2022-11-06T14:30:08.049Z,21.83
2022-11-06T14:32:37.388Z,22.42
2022-11-06T14:35:24.344Z,22.58
2022-11-06T14:37:51.471Z,22.15
2022-11-06T14:40:32.644Z,22.35
2022-11-06T14:42:59.963Z,24.02
2022-11-06T14:45:28.498Z,22.60
2022-11-06T14:47:56.909Z,21.73
2022-11-06T14:50:29.344Z,22.42
2022-11-06T14:52:59.504Z,24.33
2022-11-06T14:55:26.681Z,22.48
2022-11-06T14:57:54.704Z,21.98
2022-11-06T15:00:36.335Z,24.48
2022-11-06T15:03:05.253Z,23.27
2022-11-06T15:05:42.161Z,23.08
2022-11-06T15:08:09.856Z,24.73
2022-11-06T15:10:43.167Z,23.50
2022-11-06T15:13:21.055Z,24.50
2022-11-06T15:15:53.822Z,23.05
2022-11-06T15:18:24.789Z,24.35
2022-11-06T15:21:00.522Z,24.58
2022-11-06T15:23:42.638Z,25.45
2022-11-06T15:26:36.166Z,26.88
2022-11-06T15:29:19.168Z,27.42
2022-11-06T15:31:48.231Z,24.77
2022-11-06T15:34:30.248Z,27.10
2022-11-06T15:37:02.966Z,28.15
2022-11-06T15:39:30.074Z,27.42
2022-11-06T15:41:57.525Z,25.88
2022-11-06T15:44:25.880Z,27.10
2022-11-06T15:46:58.001Z,25.10
2022-11-06T15:49:26.217Z,26.42
2022-11-06T15:51:56.033Z,26.13
2022-11-06T15:54:36.020Z,26.20
2022-11-06T15:57:06.154Z,27.67
2022-11-06T15:59:33.308Z,26.42
2022-11-06T16:02:04.760Z,45.78
2022-11-06T16:04:32.535Z,24.40
2022-11-06T16:07:01.171Z,24.17
2022-11-06T16:09:28.737Z,24.17
2022-11-06T16:11:56.260Z,23.83
2022-11-06T16:14:23.549Z,24.75
2022-11-06T16:16:55.091Z,24.10
2022-11-06T16:19:22.276Z,24.88
2022-11-06T16:21:52.780Z,24.95
2022-11-06T16:24:20.073Z,25.42
2022-11-06T16:26:51.270Z,21.80
2022-11-06T16:29:20.663Z,20.05
2022-11-06T16:31:48.414Z,20.58
2022-11-06T16:34:33.597Z,23.00
2022-11-06T16:37:03.669Z,22.38
2022-11-06T16:39:47.762Z,23.88
2022-11-06T16:42:22.556Z,24.52
2022-11-06T16:45:11.348Z,24.95
2022-11-06T16:47:40.724Z,24.45
2022-11-06T16:50:28.060Z,22.50
2022-11-06T16:52:55.303Z,23.48
2022-11-06T16:55:28.412Z,23.90
2022-11-06T16:58:00.056Z,22.00
2022-11-06T17:00:29.610Z,21.38
2022-11-06T17:03:19.121Z,23.58
2022-11-06T17:05:53.897Z,21.88
2022-11-06T17:08:30.799Z,20.85
2022-11-06T17:10:58.689Z,23.27
2022-11-06T17:13:35.571Z,22.70
2022-11-06T17:16:04.100Z,23.60
2022-11-06T17:18:32.623Z,22.75
2022-11-06T17:21:07.278Z,21.35
2022-11-06T17:23:34.888Z,21.13
2022-11-06T17:26:04.272Z,21.77
2022-11-06T17:28:31.565Z,21.27
2022-11-06T17:30:58.934Z,22.63
2022-11-06T17:33:26.065Z,20.88
2022-11-06T17:35:53.354Z,23.45
2022-11-06T17:38:20.488Z,23.90
2022-11-06T17:40:47.899Z,23.92
2022-11-06T17:43:15.517Z,22.10
2022-11-06T17:45:44.775Z,23.08
2022-11-06T17:48:12.020Z,23.17
2022-11-06T17:50:57.831Z,24.05
2022-11-06T17:53:24.986Z,22.02
2022-11-06T17:55:52.605Z,22.55
2022-11-06T17:58:19.858Z,24.38
2022-11-06T18:00:47.031Z,24.75
2022-11-06T18:03:19.027Z,25.27
2022-11-06T18:05:46.828Z,25.05
2022-11-06T18:08:15.161Z,26.48
2022-11-06T18:10:42.641Z,26.73
2022-11-06T18:13:09.902Z,24.67
2022-11-06T18:15:37.451Z,26.63
2022-11-06T18:18:04.731Z,26.70
2022-11-06T18:20:31.938Z,26.58
2022-11-06T18:22:59.119Z,27.00
2022-11-06T18:25:26.245Z,25.77
2022-11-06T18:27:53.428Z,25.63
2022-11-06T18:30:20.563Z,25.77
2022-11-06T18:32:47.681Z,26.48
2022-11-06T18:35:14.954Z,26.25
2022-11-06T18:37:42.081Z,25.25
2022-11-06T18:40:09.537Z,27.00
2022-11-06T18:42:36.902Z,25.35
2022-11-06T18:45:04.106Z,27.23
2022-11-06T18:47:31.271Z,28.50
2022-11-06T18:49:58.504Z,25.15
2022-11-06T18:52:51.747Z,27.58
2022-11-06T18:55:12.989Z,26.67
2022-11-06T18:57:40.145Z,28.67
2022-11-06T19:00:07.756Z,25.98
2022-11-06T19:02:35.090Z,27.50
2022-11-06T19:05:02.824Z,28.42
2022-11-06T19:07:30.023Z,27.75
2022-11-06T19:09:57.390Z,30.15
2022-11-06T19:12:24.525Z,27.27
2022-11-06T19:14:51.659Z,28.20
2022-11-06T19:17:18.854Z,27.75
2022-11-06T19:19:47.035Z,28.95
2022-11-06T19:22:14.148Z,30.73
2022-11-06T19:24:41.675Z,28.55
2022-11-06T19:27:08.934Z,28.15
2022-11-06T19:29:36.420Z,27.25
2022-11-06T19:32:03.647Z,27.77
2022-11-06T19:34:34.198Z,29.27
2022-11-06T19:37:05.357Z,29.67
2022-11-06T19:39:32.505Z,29.15
2022-11-06T19:42:01.010Z,29.25
2022-11-06T19:44:28.238Z,30.35
2022-11-06T19:46:55.453Z,30.45
2022-11-06T19:49:22.662Z,29.17
2022-11-06T19:51:49.937Z,30.95
2022-11-06T19:54:17.134Z,30.23
2022-11-06T19:57:29.254Z,29.10
2022-11-06T19:59:31.755Z,29.83
2022-11-06T20:01:58.997Z,29.73
2022-11-06T20:04:26.315Z,30.63
2022-11-06T20:06:53.562Z,28.60
2022-11-06T20:09:20.686Z,29.67
2022-11-06T20:11:47.802Z,29.05
2022-11-06T20:14:18.746Z,31.48
2022-11-06T20:16:45.952Z,29.02
2022-11-06T20:19:13.290Z,28.50
2022-11-06T20:21:40.585Z,29.15
2022-11-06T20:24:07.831Z,28.55
2022-11-06T20:26:35.156Z,27.67
2022-11-06T20:29:02.483Z,27.90
2022-11-06T20:31:29.687Z,29.30
2022-11-06T20:33:57.681Z,27.65
2022-11-06T20:36:26.082Z,26.50
2022-11-06T20:38:54.317Z,26.85
2022-11-06T20:41:21.830Z,29.20
2022-11-06T20:43:49.016Z,28.15
2022-11-06T20:46:17.137Z,29.65
2022-11-06T20:48:45.439Z,27.98
2022-11-06T20:51:20.352Z,27.83
2022-11-06T20:53:47.749Z,26.98
2022-11-06T20:56:15.955Z,26.70
2022-11-06T20:58:43.865Z,27.35
2022-11-06T21:01:17.230Z,26.98
2022-11-06T21:03:44.673Z,28.58
2022-11-06T21:06:11.945Z,27.92
2022-11-06T21:08:40.135Z,27.65
2022-11-06T21:11:07.439Z,27.77
2022-11-06T21:13:35.237Z,27.30
2022-11-06T21:16:03.705Z,27.25
2022-11-06T21:18:31.099Z,27.33
2022-11-06T21:20:58.220Z,27.55
2022-11-06T21:23:25.330Z,28.77
2022-11-06T21:25:52.751Z,26.13
2022-11-06T21:28:19.899Z,25.65
2022-11-06T21:30:48.192Z,27.42
2022-11-06T21:33:16.139Z,26.92
2022-11-06T21:35:43.497Z,26.77
2022-11-06T21:38:10.623Z,27.23
2022-11-06T21:40:39.318Z,26.15
2022-11-06T21:43:06.673Z,26.75
2022-11-06T21:45:33.978Z,26.35
2022-11-06T21:48:01.549Z,26.67
2022-11-06T21:50:30.227Z,27.63
2022-11-06T21:53:16.077Z,26.30
2022-11-06T21:55:58.540Z,25.80
2022-11-06T21:58:25.752Z,25.30
2022-11-06T22:00:52.904Z,26.05
2022-11-06T22:03:20.067Z,26.17
2022-11-06T22:05:47.435Z,27.20
2022-11-06T22:08:14.856Z,26.38
2022-11-06T22:10:42.183Z,28.10
2022-11-06T22:13:09.390Z,27.85
2022-11-06T22:15:36.525Z,27.10
2022-11-06T22:18:03.750Z,28.13
2022-11-06T22:20:31.124Z,27.33
2022-11-06T22:22:58.232Z,26.45
2022-11-06T22:25:25.417Z,28.00
2022-11-06T22:27:52.798Z,26.65
2022-11-06T22:30:20.019Z,28.02
2022-11-06T22:32:47.192Z,27.20
2022-11-06T22:35:14.527Z,28.38
2022-11-06T22:37:41.683Z,27.90
2022-11-06T22:40:09.237Z,27.50
2022-11-06T22:42:36.554Z,26.25
2022-11-06T22:45:03.781Z,26.05
2022-11-06T22:47:31.036Z,27.67
2022-11-06T22:50:00.864Z,25.75
2022-11-06T22:52:28.058Z,29.63
2022-11-06T22:54:55.320Z,27.25
2022-11-06T22:57:22.603Z,26.30
2022-11-06T22:59:49.741Z,28.13
2022-11-06T23:02:16.999Z,28.17
2022-11-06T23:04:44.381Z,27.70
2022-11-06T23:07:11.559Z,29.67
2022-11-06T23:09:38.725Z,27.17
2022-11-06T23:12:06.107Z,27.88
2022-11-06T23:14:33.402Z,28.20
2022-11-06T23:17:00.874Z,28.50
2022-11-06T23:19:29.834Z,28.25
2022-11-06T23:22:16.978Z,28.80
2022-11-06T23:24:44.728Z,28.38
2022-11-06T23:27:12.492Z,29.50
2022-11-06T23:29:39.905Z,31.23
2022-11-06T23:32:07.234Z,28.95
2022-11-06T23:34:37.004Z,31.77
2022-11-06T23:37:04.266Z,30.08
2022-11-06T23:39:31.548Z,29.00
2022-11-06T23:41:58.697Z,29.65
2022-11-06T23:44:44.507Z,30.35
2022-11-06T23:47:11.632Z,31.27
2022-11-06T23:49:38.819Z,30.65
2022-11-06T23:52:06.228Z,30.45
2022-11-06T23:54:33.664Z,29.17
2022-11-06T23:57:03.687Z,31.00
2022-11-06T23:59:30.916Z,31.50
